createdAt,value
2017-04-29T00:00:19.384Z,21.91
2017-04-29T00:01:28.385Z,21.82
2017-04-29T00:02:38.562Z,21.74
2017-04-29T00:03:48.488Z,21.79
2017-04-29T00:04:58.737Z,21.75
2017-04-29T00:06:08.651Z,21.84
2017-04-29T00:07:17.950Z,21.84
2017-04-29T00:08:27.712Z,21.8
2017-04-29T00:09:37.638Z,21.77
2017-04-29T00:10:48.228Z,21.8
2017-04-29T00:11:57.832Z,21.86
2017-04-29T00:13:07.436Z,21.83
2017-04-29T00:14:17.517Z,21.77
2017-04-29T00:15:26.525Z,21.84
2017-04-29T00:16:35.864Z,21.83
2017-04-29T00:17:46.111Z,21.82
2017-04-29T00:18:56.024Z,21.83
2017-04-29T00:20:05.577Z,21.79
2017-04-29T00:21:15.173Z,21.8
2017-04-29T00:22:24.782Z,21.8
2017-04-29T00:23:34.385Z,21.77
2017-04-29T00:24:44.668Z,21.77
2017-04-29T00:25:55.192Z,21.74
2017-04-29T00:27:04.487Z,21.74
2017-04-29T00:28:14.093Z,21.79
2017-04-29T00:29:24.023Z,21.8
2017-04-29T00:30:33.934Z,21.79
2017-04-29T00:31:44.254Z,21.82
2017-04-29T00:32:53.881Z,21.77
2017-04-29T00:34:03.796Z,21.75
2017-04-29T00:35:13.709Z,21.82
2017-04-29T00:36:23.618Z,21.82
2017-04-29T00:37:33.680Z,21.71
2017-04-29T00:38:43.910Z,21.77
2017-04-29T00:39:53.821Z,21.74
2017-04-29T00:41:03.726Z,21.69
2017-04-29T00:42:13.013Z,21.77
2017-04-29T00:43:22.771Z,21.75
2017-04-29T00:44:32.987Z,21.74
2017-04-29T00:45:42.591Z,21.74
2017-04-29T00:46:52.820Z,21.77
2017-04-29T00:48:02.746Z,21.77
2017-04-29T00:49:13.009Z,21.82
2017-04-29T00:50:23.225Z,21.79
2017-04-29T00:51:33.132Z,21.72
2017-04-29T00:52:43.060Z,21.77
2017-04-29T00:53:52.978Z,21.75
2017-04-29T00:55:03.144Z,21.74
2017-04-29T00:56:13.057Z,21.72
2017-04-29T00:57:22.967Z,21.71
2017-04-29T00:58:32.571Z,21.69
2017-04-29T00:59:42.172Z,21.69
2017-04-29T01:00:52.379Z,21.68
2017-04-29T01:02:01.679Z,21.65
2017-04-29T01:03:11.607Z,21.67
2017-04-29T01:04:21.838Z,21.68
2017-04-29T01:05:32.060Z,21.68
2017-04-29T01:06:42.629Z,21.69
2017-04-29T01:07:52.265Z,21.68
2017-04-29T01:09:02.511Z,21.65
2017-04-29T01:10:12.428Z,21.67
2017-04-29T01:11:22.020Z,21.64
2017-04-29T01:12:31.871Z,21.62
2017-04-29T01:13:42.094Z,21.67
2017-04-29T01:14:52.319Z,21.62
2017-04-29T01:16:02.550Z,21.65
2017-04-29T01:17:12.450Z,21.65
2017-04-29T01:18:22.627Z,21.62
2017-04-29T01:19:32.536Z,21.62
2017-04-29T01:20:42.135Z,21.61
2017-04-29T01:21:52.057Z,21.64
2017-04-29T01:23:01.668Z,21.67
2017-04-29T01:24:11.118Z,21.61
2017-04-29T01:25:21.022Z,21.65
2017-04-29T01:26:30.939Z,21.62
2017-04-29T01:27:40.859Z,21.65
2017-04-29T01:28:50.163Z,21.62
2017-04-29T01:30:00.321Z,21.59
2017-04-29T01:31:10.544Z,21.64
2017-04-29T01:32:20.461Z,21.65
2017-04-29T01:33:30.689Z,21.62
2017-04-29T01:34:41.286Z,21.58
2017-04-29T01:35:51.143Z,21.58
2017-04-29T01:37:01.372Z,21.61
2017-04-29T01:38:11.275Z,21.65
2017-04-29T01:39:20.570Z,21.62
2017-04-29T01:40:30.485Z,21.58
2017-04-29T01:41:40.695Z,21.62
2017-04-29T01:42:50.623Z,21.53
2017-04-29T01:44:00.233Z,21.54
2017-04-29T01:45:09.842Z,21.61
2017-04-29T01:46:19.773Z,21.58
2017-04-29T01:47:29.175Z,21.58
2017-04-29T01:48:39.402Z,21.53
2017-04-29T01:49:49.319Z,21.59
2017-04-29T01:50:59.231Z,21.62
2017-04-29T01:52:09.443Z,21.58
2017-04-29T01:53:19.141Z,21.52
2017-04-29T01:54:28.747Z,21.49
2017-04-29T01:55:38.671Z,21.54
2017-04-29T01:56:48.280Z,21.56
2017-04-29T01:57:58.190Z,21.54
2017-04-29T01:59:08.369Z,21.58
2017-04-29T02:00:18.274Z,21.54
2017-04-29T02:01:27.872Z,21.54
2017-04-29T02:02:37.793Z,21.54
2017-04-29T02:03:48.012Z,21.49
2017-04-29T02:04:57.672Z,21.56
2017-04-29T02:06:07.898Z,21.52
2017-04-29T02:07:17.805Z,21.49
2017-04-29T02:08:27.407Z,21.5
2017-04-29T02:09:37.001Z,21.56
2017-04-29T02:10:47.328Z,21.54
2017-04-29T02:11:56.944Z,21.5
2017-04-29T02:13:06.855Z,21.54
2017-04-29T02:14:16.474Z,21.49
2017-04-29T02:15:26.097Z,21.46
2017-04-29T02:16:36.309Z,21.52
2017-04-29T02:17:46.232Z,21.52
2017-04-29T02:18:56.162Z,21.52
2017-04-29T02:20:05.776Z,21.47
2017-04-29T02:21:15.696Z,21.4
2017-04-29T02:22:25.602Z,21.49
2017-04-29T02:23:35.837Z,21.44
2017-04-29T02:24:45.442Z,21.44
2017-04-29T02:25:55.352Z,21.49
2017-04-29T02:27:05.271Z,21.46
2017-04-29T02:28:15.744Z,21.43
2017-04-29T02:29:25.347Z,21.4
2017-04-29T02:30:34.646Z,21.44
2017-04-29T02:31:44.869Z,21.43
2017-04-29T02:32:54.771Z,21.43
2017-04-29T02:34:05.095Z,21.4
2017-04-29T02:35:15.008Z,21.37
2017-04-29T02:36:25.220Z,21.38
2017-04-29T02:37:34.814Z,21.42
2017-04-29T02:38:44.735Z,21.4
2017-04-29T02:39:54.642Z,21.44
2017-04-29T02:41:04.562Z,21.4
2017-04-29T02:42:14.786Z,21.47
2017-04-29T02:43:24.702Z,21.42
2017-04-29T02:44:34.306Z,21.4
2017-04-29T02:45:44.846Z,21.4
2017-04-29T02:46:54.797Z,21.42
2017-04-29T02:48:05.019Z,21.43
2017-04-29T02:49:14.929Z,21.49
2017-04-29T02:50:24.845Z,21.46
2017-04-29T02:51:35.379Z,21.42
2017-04-29T02:52:45.617Z,21.4
2017-04-29T02:53:55.886Z,21.42
2017-04-29T02:55:05.795Z,21.32
2017-04-29T02:56:16.009Z,21.4
2017-04-29T02:57:25.461Z,21.37
2017-04-29T02:58:35.688Z,21.32
2017-04-29T02:59:45.294Z,21.43
2017-04-29T03:00:54.895Z,21.4
2017-04-29T03:02:04.498Z,21.37
2017-04-29T03:03:14.962Z,21.43
2017-04-29T03:04:24.916Z,21.37
2017-04-29T03:05:33.598Z,21.4
2017-04-29T03:06:42.897Z,21.35
2017-04-29T03:07:52.849Z,21.38
2017-04-29T03:09:03.124Z,21.32
2017-04-29T03:10:13.343Z,21.4
2017-04-29T03:11:22.951Z,21.34
2017-04-29T03:12:32.873Z,21.42
2017-04-29T03:13:43.093Z,21.43
2017-04-29T03:14:52.993Z,21.4
2017-04-29T03:16:03.219Z,21.44
2017-04-29T03:17:13.145Z,21.37
2017-04-29T03:18:22.466Z,21.43
2017-04-29T03:19:32.082Z,21.4
2017-04-29T03:20:43.350Z,21.42
2017-04-29T03:21:53.269Z,21.37
2017-04-29T03:23:02.873Z,21.38
2017-04-29T03:24:12.799Z,21.34
2017-04-29T03:25:23.016Z,21.28
2017-04-29T03:26:33.669Z,21.32
2017-04-29T03:27:43.900Z,21.4
2017-04-29T03:28:53.506Z,21.35
2017-04-29T03:30:03.426Z,21.32
2017-04-29T03:31:13.338Z,21.27
2017-04-29T03:32:23.257Z,21.34
2017-04-29T03:33:32.569Z,21.31
2017-04-29T03:34:42.488Z,21.34
2017-04-29T03:35:52.407Z,21.29
2017-04-29T03:37:02.626Z,21.31
2017-04-29T03:38:13.446Z,21.31
2017-04-29T03:39:22.757Z,21.27
2017-04-29T03:40:32.675Z,21.31
2017-04-29T03:41:42.282Z,21.29
2017-04-29T03:42:52.523Z,21.31
2017-04-29T03:44:02.910Z,21.28
2017-04-29T03:45:13.135Z,21.31
2017-04-29T03:46:23.050Z,21.29
2017-04-29T03:47:32.658Z,21.25
2017-04-29T03:48:42.288Z,21.29
2017-04-29T03:49:53.059Z,21.28
2017-04-29T03:51:02.442Z,21.27
2017-04-29T03:52:12.349Z,21.37
2017-04-29T03:53:22.258Z,21.24
2017-04-29T03:54:32.204Z,21.32
2017-04-29T03:55:42.377Z,21.31
2017-04-29T03:56:52.304Z,21.28
2017-04-29T03:58:02.237Z,21.31
2017-04-29T03:59:11.849Z,21.35
2017-04-29T04:00:21.766Z,21.25
2017-04-29T04:01:31.537Z,21.32
2017-04-29T04:02:41.451Z,21.31
2017-04-29T04:03:51.367Z,21.25
2017-04-29T04:05:00.980Z,21.35
2017-04-29T04:06:10.897Z,21.28
2017-04-29T04:07:21.057Z,21.29
2017-04-29T04:08:30.962Z,21.34
2017-04-29T04:09:41.187Z,21.25
2017-04-29T04:10:51.105Z,21.29
2017-04-29T04:12:01.036Z,21.25
2017-04-29T04:13:11.118Z,21.27
2017-04-29T04:14:21.352Z,21.29
2017-04-29T04:15:31.256Z,21.35
2017-04-29T04:16:41.479Z,21.27
2017-04-29T04:17:51.697Z,21.32
2017-04-29T04:19:02.266Z,21.27
2017-04-29T04:20:11.888Z,21.29
2017-04-29T04:21:22.107Z,21.28
2017-04-29T04:22:32.028Z,21.22
2017-04-29T04:23:42.261Z,21.34
2017-04-29T04:24:52.175Z,21.32
2017-04-29T04:26:02.096Z,21.29
2017-04-29T04:27:12.019Z,21.29
2017-04-29T04:28:21.998Z,21.28
2017-04-29T04:29:32.232Z,21.27
2017-04-29T04:30:41.938Z,21.25
2017-04-29T04:31:52.157Z,21.27
2017-04-29T04:33:02.388Z,21.25
2017-04-29T04:34:12.310Z,21.32
2017-04-29T04:35:22.229Z,21.25
2017-04-29T04:36:32.576Z,21.29
2017-04-29T04:37:42.480Z,21.22
2017-04-29T04:38:52.406Z,21.32
2017-04-29T04:40:02.640Z,21.31
2017-04-29T04:41:12.547Z,21.27
2017-04-29T04:42:22.842Z,21.32
2017-04-29T04:43:33.066Z,21.29
2017-04-29T04:44:42.987Z,21.38
2017-04-29T04:45:53.225Z,21.34
2017-04-29T04:47:02.840Z,21.31
2017-04-29T04:48:12.449Z,21.29
2017-04-29T04:49:22.370Z,21.32
2017-04-29T04:50:32.589Z,21.32
2017-04-29T04:51:42.528Z,21.32
2017-04-29T04:52:52.773Z,21.4
2017-04-29T04:54:03.042Z,21.4
2017-04-29T04:55:12.662Z,21.4
2017-04-29T04:56:22.882Z,21.35
2017-04-29T04:57:32.493Z,21.38
2017-04-29T04:58:42.099Z,21.34
2017-04-29T04:59:52.268Z,21.35
2017-04-29T05:01:01.904Z,21.37
2017-04-29T05:02:12.138Z,21.38
2017-04-29T05:03:21.748Z,21.43
2017-04-29T05:04:31.665Z,21.34
2017-04-29T05:05:41.586Z,21.42
2017-04-29T05:06:51.200Z,21.35
2017-04-29T05:08:01.148Z,21.34
2017-04-29T05:09:11.365Z,21.38
2017-04-29T05:10:21.585Z,21.46
2017-04-29T05:11:31.253Z,21.47
2017-04-29T05:12:41.528Z,21.4
2017-04-29T05:13:51.444Z,21.43
2017-04-29T05:15:01.680Z,21.43
2017-04-29T05:16:11.312Z,21.58
2017-04-29T05:17:21.344Z,21.65
2017-04-29T05:18:31.271Z,21.72
2017-04-29T05:19:41.200Z,21.9
2017-04-29T05:20:51.118Z,21.94
2017-04-29T05:22:00.729Z,21.99
2017-04-29T05:23:10.895Z,21.91
2017-04-29T05:24:20.823Z,21.98
2017-04-29T05:25:30.740Z,21.99
2017-04-29T05:26:40.027Z,21.94
2017-04-29T05:27:50.246Z,22.02
2017-04-29T05:29:00.629Z,22.15
2017-04-29T05:30:10.542Z,22.35
2017-04-29T05:31:20.153Z,22.57
2017-04-29T05:32:29.786Z,22.77
2017-04-29T05:33:40.013Z,23.13
2017-04-29T05:34:50.039Z,23.35
2017-04-29T05:35:59.663Z,23.63
2017-04-29T05:37:09.891Z,23.91
2017-04-29T05:38:20.219Z,24.08
2017-04-29T05:39:29.535Z,24.05
2017-04-29T05:40:39.796Z,24.08
2017-04-29T05:41:50.015Z,23.97
2017-04-29T05:42:59.930Z,23.87
2017-04-29T05:44:09.538Z,24.12
2017-04-29T05:45:19.443Z,24.31
2017-04-29T05:46:29.513Z,24.77
2017-04-29T05:47:39.730Z,25.18
2017-04-29T05:48:49.982Z,25.51
2017-04-29T05:50:00.211Z,25.87
2017-04-29T05:51:10.127Z,26.09
2017-04-29T05:52:20.294Z,26.51
2017-04-29T05:53:30.216Z,26.75
2017-04-29T05:54:40.134Z,27.07
2017-04-29T05:55:50.062Z,27.24
2017-04-29T05:57:00.281Z,27.57
2017-04-29T05:58:10.751Z,27.77
2017-04-29T05:59:20.665Z,27.99
2017-04-29T06:00:30.599Z,28.09
2017-04-29T06:01:40.830Z,28.39
2017-04-29T06:02:50.751Z,28.58
2017-04-29T06:04:00.936Z,28.66
2017-04-29T06:05:10.878Z,28.86
2017-04-29T06:06:21.103Z,29.08
2017-04-29T06:07:31.033Z,29.14
2017-04-29T06:08:40.333Z,29.31
2017-04-29T06:09:50.410Z,29.49
2017-04-29T06:11:00.641Z,29.63
2017-04-29T06:12:10.886Z,29.67
2017-04-29T06:13:20.531Z,29.63
2017-04-29T06:14:30.204Z,29.46
2017-04-29T06:15:40.406Z,29.11
2017-04-29T06:16:50.322Z,28.74
2017-04-29T06:18:00.246Z,28.49
2017-04-29T06:19:10.483Z,28.15
2017-04-29T06:20:20.430Z,27.88
2017-04-29T06:21:30.515Z,27.62
2017-04-29T06:22:40.180Z,27.4
2017-04-29T06:23:50.101Z,27.25
2017-04-29T06:25:00.357Z,27.03
2017-04-29T06:26:10.293Z,26.85
2017-04-29T06:27:20.469Z,26.65
2017-04-29T06:28:30.380Z,26.44
2017-04-29T06:29:40.307Z,26.32
2017-04-29T06:30:50.564Z,26.06
2017-04-29T06:32:00.492Z,25.92
2017-04-29T06:33:10.271Z,25.82
2017-04-29T06:34:20.198Z,25.75
2017-04-29T06:35:30.424Z,25.65
2017-04-29T06:36:39.734Z,25.57
2017-04-29T06:37:49.655Z,25.54
2017-04-29T06:38:59.918Z,25.5
2017-04-29T06:40:09.833Z,25.42
2017-04-29T06:41:20.048Z,25.35
2017-04-29T06:42:29.954Z,25.3
2017-04-29T06:43:39.264Z,25.23
2017-04-29T06:44:49.233Z,25.08
2017-04-29T06:45:59.462Z,25.03
2017-04-29T06:47:09.417Z,25
2017-04-29T06:48:19.032Z,24.91
2017-04-29T06:49:28.961Z,24.88
2017-04-29T06:50:39.020Z,24.9
2017-04-29T06:51:48.927Z,24.96
2017-04-29T06:52:59.156Z,24.93
2017-04-29T06:54:09.080Z,24.91
2017-04-29T06:55:19.019Z,24.91
2017-04-29T06:56:29.508Z,24.95
2017-04-29T06:57:39.444Z,24.95
2017-04-29T06:58:49.369Z,24.93
2017-04-29T06:59:59.331Z,24.91
2017-04-29T07:01:09.246Z,24.93
2017-04-29T07:02:19.402Z,24.95
2017-04-29T07:03:29.316Z,24.78
2017-04-29T07:04:38.650Z,24.91
2017-04-29T07:05:48.276Z,24.83
2017-04-29T07:06:58.492Z,24.91
2017-04-29T07:08:08.141Z,24.8
2017-04-29T07:09:17.759Z,24.77
2017-04-29T07:10:27.088Z,24.81
2017-04-29T07:11:37.016Z,24.84
2017-04-29T07:12:46.631Z,24.84
2017-04-29T07:13:57.154Z,24.93
2017-04-29T07:15:07.375Z,24.84
2017-04-29T07:16:16.991Z,24.91
2017-04-29T07:17:26.916Z,24.78
2017-04-29T07:18:36.829Z,24.8
2017-04-29T07:19:47.039Z,24.95
2017-04-29T07:20:56.334Z,25.09
2017-04-29T07:22:06.258Z,25.24
2017-04-29T07:23:16.185Z,25.3
2017-04-29T07:24:25.828Z,25.54
2017-04-29T07:25:36.364Z,25.57
2017-04-29T07:26:46.296Z,25.32
2017-04-29T07:27:56.249Z,25.38
2017-04-29T07:29:05.557Z,25.3
2017-04-29T07:30:15.174Z,25.2
2017-04-29T07:31:25.094Z,25.2
2017-04-29T07:32:35.011Z,25.54
2017-04-29T07:33:44.915Z,26.01
2017-04-29T07:34:55.195Z,26.58
2017-04-29T07:36:05.115Z,26.91
2017-04-29T07:37:15.326Z,27.25
2017-04-29T07:38:24.937Z,27.62
2017-04-29T07:39:35.160Z,28
2017-04-29T07:40:45.070Z,28.29
2017-04-29T07:41:55.297Z,28.66
2017-04-29T07:43:05.632Z,28.98
2017-04-29T07:44:15.276Z,29.23
2017-04-29T07:45:25.569Z,29.55
2017-04-29T07:46:35.487Z,29.82
2017-04-29T07:47:45.721Z,29.97
2017-04-29T07:48:55.749Z,30.32
2017-04-29T07:50:05.666Z,30.46
2017-04-29T07:51:15.281Z,30.72
2017-04-29T07:52:25.199Z,30.94
2017-04-29T07:53:34.810Z,30.95
2017-04-29T07:54:45.370Z,31.25
2017-04-29T07:55:55.009Z,31.34
2017-04-29T07:57:05.238Z,31.57
2017-04-29T07:58:15.189Z,31.7
2017-04-29T07:59:24.814Z,31.88
2017-04-29T08:00:34.477Z,31.8
2017-04-29T08:01:44.105Z,31.86
2017-04-29T08:02:54.030Z,31.69
2017-04-29T08:04:03.637Z,31.36
2017-04-29T08:05:12.953Z,31.07
2017-04-29T08:06:23.139Z,30.77
2017-04-29T08:07:32.751Z,30.43
2017-04-29T08:08:42.378Z,30.16
2017-04-29T08:09:52.005Z,29.87
2017-04-29T08:11:01.618Z,29.46
2017-04-29T08:12:11.661Z,29.34
2017-04-29T08:13:21.592Z,29.16
2017-04-29T08:14:31.559Z,28.86
2017-04-29T08:15:41.550Z,28.86
2017-04-29T08:16:50.877Z,28.78
2017-04-29T08:18:01.045Z,28.68
2017-04-29T08:19:10.970Z,28.48
2017-04-29T08:20:20.572Z,28.43
2017-04-29T08:21:30.499Z,28.66
2017-04-29T08:22:40.104Z,28.89
2017-04-29T08:23:50.439Z,28.83
2017-04-29T08:25:00.365Z,28.61
2017-04-29T08:26:10.288Z,28.48
2017-04-29T08:27:20.200Z,28.36
2017-04-29T08:28:30.129Z,28.17
2017-04-29T08:29:40.204Z,28.03
2017-04-29T08:30:49.821Z,27.84
2017-04-29T08:31:59.736Z,27.66
2017-04-29T08:33:09.343Z,27.51
2017-04-29T08:34:18.959Z,27.36
2017-04-29T08:35:29.187Z,27.21
2017-04-29T08:36:39.113Z,27.12
2017-04-29T08:37:49.364Z,26.99
2017-04-29T08:38:59.311Z,26.91
2017-04-29T08:40:09.574Z,26.75
2017-04-29T08:41:20.090Z,26.69
2017-04-29T08:42:29.999Z,26.63
2017-04-29T08:43:39.321Z,26.52
2017-04-29T08:44:48.936Z,26.54
2017-04-29T08:45:58.567Z,26.48
2017-04-29T08:47:08.791Z,26.51
2017-04-29T08:48:18.412Z,26.44
2017-04-29T08:49:28.025Z,26.33
2017-04-29T08:50:37.938Z,26.2
2017-04-29T08:51:47.863Z,26.18
2017-04-29T08:52:58.134Z,26.07
2017-04-29T08:54:07.446Z,25.95
2017-04-29T08:55:17.366Z,25.95
2017-04-29T08:56:27.340Z,25.91
2017-04-29T08:57:37.561Z,25.95
2017-04-29T08:58:47.304Z,25.82
2017-04-29T08:59:57.529Z,25.8
2017-04-29T09:01:07.147Z,25.76
2017-04-29T09:02:17.380Z,25.65
2017-04-29T09:03:27.319Z,25.62
2017-04-29T09:04:37.381Z,25.64
2017-04-29T09:05:47.023Z,25.45
2017-04-29T09:06:57.656Z,25.45
2017-04-29T09:08:07.288Z,25.43
2017-04-29T09:09:16.298Z,25.38
2017-04-29T09:10:26.199Z,25.33
2017-04-29T09:11:36.111Z,25.28
2017-04-29T09:12:46.340Z,25.33
2017-04-29T09:13:56.276Z,25.24
2017-04-29T09:15:06.206Z,25.27
2017-04-29T09:16:16.688Z,25.17
2017-04-29T09:17:26.617Z,25.23
2017-04-29T09:18:35.623Z,25.18
2017-04-29T09:19:45.533Z,25.1
2017-04-29T09:20:55.768Z,25.09
2017-04-29T09:22:05.748Z,25.06
2017-04-29T09:23:15.664Z,24.98
2017-04-29T09:24:25.610Z,24.98
2017-04-29T09:25:35.240Z,24.93
2017-04-29T09:26:44.876Z,24.83
2017-04-29T09:27:55.362Z,24.78
2017-04-29T09:29:05.285Z,24.78
2017-04-29T09:30:14.892Z,24.77
2017-04-29T09:31:25.131Z,24.69
2017-04-29T09:32:35.059Z,24.65
2017-04-29T09:33:44.530Z,24.64
2017-04-29T09:34:54.466Z,24.52
2017-04-29T09:36:04.083Z,24.55
2017-04-29T09:37:14.306Z,24.5
2017-04-29T09:38:23.919Z,24.43
2017-04-29T09:39:33.780Z,24.45
2017-04-29T09:40:44.003Z,24.49
2017-04-29T09:41:54.225Z,24.42
2017-04-29T09:43:04.458Z,24.39
2017-04-29T09:44:14.384Z,24.31
2017-04-29T09:45:24.553Z,24.43
2017-04-29T09:46:34.154Z,24.47
2017-04-29T09:47:44.074Z,24.28
2017-04-29T09:48:54.006Z,24.43
2017-04-29T09:50:03.928Z,24.32
2017-04-29T09:51:13.482Z,24.32
2017-04-29T09:52:23.705Z,24.31
2017-04-29T09:53:33.333Z,24.31
2017-04-29T09:54:43.558Z,24.32
2017-04-29T09:55:53.158Z,24.31
2017-04-29T09:57:03.475Z,24.25
2017-04-29T09:58:13.400Z,24.25
2017-04-29T09:59:23.654Z,24.13
2017-04-29T10:00:32.959Z,24.12
2017-04-29T10:01:42.880Z,24.31
2017-04-29T10:02:53.097Z,24.2
2017-04-29T10:04:02.708Z,24.16
2017-04-29T10:05:12.618Z,24.15
2017-04-29T10:06:22.559Z,24.09
2017-04-29T10:07:31.573Z,24.2
2017-04-29T10:08:41.745Z,24.08
2017-04-29T10:09:51.353Z,24.2
2017-04-29T10:11:01.284Z,24.16
2017-04-29T10:12:11.207Z,24.13
2017-04-29T10:13:21.125Z,24.06
2017-04-29T10:14:31.406Z,24.08
2017-04-29T10:15:41.312Z,24.05
2017-04-29T10:16:50.932Z,23.95
2017-04-29T10:18:00.846Z,24.05
2017-04-29T10:19:11.142Z,23.98
2017-04-29T10:20:21.661Z,23.97
2017-04-29T10:21:31.889Z,23.98
2017-04-29T10:22:41.519Z,23.95
2017-04-29T10:23:51.792Z,23.98
2017-04-29T10:25:02.019Z,23.95
2017-04-29T10:26:12.539Z,23.98
2017-04-29T10:27:22.204Z,23.9
2017-04-29T10:28:32.137Z,23.88
2017-04-29T10:29:41.746Z,23.94
2017-04-29T10:30:51.651Z,23.87
2017-04-29T10:32:02.136Z,23.88
2017-04-29T10:33:12.349Z,23.87
2017-04-29T10:34:22.267Z,23.9
2017-04-29T10:35:32.500Z,23.85
2017-04-29T10:36:42.420Z,23.83
2017-04-29T10:37:52.789Z,23.79
2017-04-29T10:39:03.017Z,23.8
2017-04-29T10:40:12.984Z,23.79
2017-04-29T10:41:23.273Z,23.7
2017-04-29T10:42:33.875Z,23.79
2017-04-29T10:43:44.399Z,23.76
2017-04-29T10:44:54.018Z,23.69
2017-04-29T10:46:04.252Z,23.66
2017-04-29T10:47:14.161Z,23.75
2017-04-29T10:48:24.375Z,23.79
2017-04-29T10:49:34.741Z,23.75
2017-04-29T10:50:44.919Z,23.63
2017-04-29T10:51:55.130Z,23.68
2017-04-29T10:53:05.177Z,23.73
2017-04-29T10:54:14.777Z,23.75
2017-04-29T10:55:24.496Z,23.73
2017-04-29T10:56:34.452Z,23.63
2017-04-29T10:57:44.070Z,23.63
2017-04-29T10:58:54.294Z,23.7
2017-04-29T11:00:03.908Z,23.73
2017-04-29T11:01:13.956Z,23.73
2017-04-29T11:02:23.591Z,23.7
2017-04-29T11:03:33.842Z,23.73
2017-04-29T11:04:44.085Z,23.72
2017-04-29T11:05:54.000Z,23.72
2017-04-29T11:07:04.575Z,23.66
2017-04-29T11:08:14.186Z,23.75
2017-04-29T11:09:24.109Z,23.75
2017-04-29T11:10:34.020Z,23.66
2017-04-29T11:11:44.243Z,23.65
2017-04-29T11:12:54.202Z,23.69
2017-04-29T11:14:04.160Z,23.66
2017-04-29T11:15:14.099Z,23.65
2017-04-29T11:16:24.020Z,23.72
2017-04-29T11:17:33.935Z,23.83
2017-04-29T11:18:44.127Z,23.76
2017-04-29T11:19:54.068Z,23.84
2017-04-29T11:21:03.992Z,23.75
2017-04-29T11:22:14.220Z,23.84
2017-04-29T11:23:24.137Z,23.7
2017-04-29T11:24:34.353Z,23.8
2017-04-29T11:25:44.634Z,23.72
2017-04-29T11:26:54.582Z,23.7
2017-04-29T11:28:04.537Z,23.7
2017-04-29T11:29:14.199Z,23.76
2017-04-29T11:30:24.422Z,23.72
2017-04-29T11:31:34.028Z,23.7
2017-04-29T11:32:44.247Z,23.73
2017-04-29T11:33:53.862Z,23.73
2017-04-29T11:35:04.099Z,23.7
2017-04-29T11:36:14.260Z,23.68
2017-04-29T11:37:23.867Z,23.61
2017-04-29T11:38:34.085Z,23.61
2017-04-29T11:39:43.696Z,23.68
2017-04-29T11:40:53.597Z,23.66
2017-04-29T11:42:03.768Z,23.65
2017-04-29T11:43:13.686Z,23.66
2017-04-29T11:44:23.306Z,23.66
2017-04-29T11:45:33.226Z,23.69
2017-04-29T11:46:43.208Z,23.66
2017-04-29T11:47:53.125Z,23.65
2017-04-29T11:49:02.735Z,23.66
2017-04-29T11:50:12.345Z,23.65
2017-04-29T11:51:22.578Z,23.68
2017-04-29T11:52:32.809Z,23.65
2017-04-29T11:53:43.190Z,23.66
2017-04-29T11:54:53.102Z,23.63
2017-04-29T11:56:03.328Z,23.68
2017-04-29T11:57:13.551Z,23.6
2017-04-29T11:58:22.874Z,23.57
2017-04-29T11:59:32.335Z,23.53
2017-04-29T12:00:42.562Z,23.55
2017-04-29T12:01:52.485Z,23.51
2017-04-29T12:03:02.231Z,23.57
2017-04-29T12:04:12.272Z,23.58
2017-04-29T12:05:22.733Z,23.5
2017-04-29T12:06:32.786Z,23.51
2017-04-29T12:07:43.050Z,23.5
2017-04-29T12:08:53.075Z,23.5
2017-04-29T12:10:03.125Z,23.48
2017-04-29T12:11:12.763Z,23.43
2017-04-29T12:12:22.720Z,23.46
2017-04-29T12:13:32.651Z,23.46
2017-04-29T12:14:42.891Z,23.42
2017-04-29T12:15:53.178Z,23.39
2017-04-29T12:17:02.935Z,23.4
2017-04-29T12:18:12.922Z,23.36
2017-04-29T12:19:23.356Z,23.38
2017-04-29T12:20:33.510Z,23.4
2017-04-29T12:21:43.163Z,23.35
2017-04-29T12:22:53.233Z,23.39
2017-04-29T12:24:03.471Z,23.38
2017-04-29T12:25:13.411Z,23.4
2017-04-29T12:26:23.022Z,23.35
2017-04-29T12:27:33.261Z,23.39
2017-04-29T12:28:43.786Z,23.39
2017-04-29T12:29:53.717Z,23.39
2017-04-29T12:31:03.647Z,23.35
2017-04-29T12:32:13.903Z,23.35
2017-04-29T12:33:23.877Z,23.4
2017-04-29T12:34:34.090Z,23.4
2017-04-29T12:35:44.317Z,23.4
2017-04-29T12:36:54.542Z,23.43
2017-04-29T12:38:04.448Z,23.33
2017-04-29T12:39:14.072Z,23.35
2017-04-29T12:40:24.272Z,23.4
2017-04-29T12:41:34.502Z,23.35
2017-04-29T12:42:44.431Z,23.47
2017-04-29T12:43:54.044Z,23.31
2017-04-29T12:45:04.017Z,23.36
2017-04-29T12:46:14.576Z,23.39
2017-04-29T12:47:24.516Z,23.39
2017-04-29T12:48:34.741Z,23.39
2017-04-29T12:49:44.658Z,23.38
2017-04-29T12:50:54.885Z,23.36
2017-04-29T12:52:04.947Z,23.36
2017-04-29T12:53:14.566Z,23.42
2017-04-29T12:54:24.487Z,23.38
2017-04-29T12:55:34.133Z,23.46
2017-04-29T12:56:44.367Z,23.38
2017-04-29T12:57:54.444Z,23.4
2017-04-29T12:59:04.672Z,23.4
2017-04-29T13:00:14.587Z,23.39
2017-04-29T13:01:24.810Z,23.38
2017-04-29T13:02:34.101Z,23.28
2017-04-29T13:03:44.292Z,23.33
2017-04-29T13:04:54.219Z,23.28
2017-04-29T13:06:04.145Z,23.27
2017-04-29T13:07:13.752Z,23.27
2017-04-29T13:08:23.060Z,23.23
2017-04-29T13:09:33.588Z,23.27
2017-04-29T13:10:43.510Z,23.2
2017-04-29T13:11:53.425Z,23.31
2017-04-29T13:13:03.646Z,23.23
2017-04-29T13:14:13.276Z,23.23
2017-04-29T13:15:22.923Z,23.25
2017-04-29T13:16:32.840Z,23.16
2017-04-29T13:17:42.773Z,23.19
2017-04-29T13:18:53.008Z,23.19
2017-04-29T13:20:03.244Z,23.15
2017-04-29T13:21:13.681Z,23.23
2017-04-29T13:22:23.599Z,23.23
2017-04-29T13:23:33.202Z,23.22
2017-04-29T13:24:43.433Z,23.16
2017-04-29T13:25:53.348Z,23.27
2017-04-29T13:27:02.923Z,23.17
2017-04-29T13:28:12.531Z,23.2
2017-04-29T13:29:22.769Z,23.19
2017-04-29T13:30:32.403Z,23.23
2017-04-29T13:31:42.336Z,23.2
2017-04-29T13:32:52.398Z,23.22
2017-04-29T13:34:02.027Z,23.17
2017-04-29T13:35:11.955Z,23.12
2017-04-29T13:36:21.874Z,23.17
2017-04-29T13:37:32.111Z,23.12
2017-04-29T13:38:42.272Z,23.15
2017-04-29T13:39:52.219Z,23.22
2017-04-29T13:41:01.843Z,23.2
2017-04-29T13:42:11.172Z,23.2
2017-04-29T13:43:21.098Z,23.15
2017-04-29T13:44:31.182Z,23.15
2017-04-29T13:45:41.425Z,23.05
2017-04-29T13:46:51.048Z,23.15
2017-04-29T13:48:01.316Z,23.15
2017-04-29T13:49:10.951Z,23.07
2017-04-29T13:50:21.131Z,23.13
2017-04-29T13:51:31.363Z,23.19
2017-04-29T13:52:41.312Z,23.02
2017-04-29T13:53:51.606Z,23.12
2017-04-29T13:55:01.543Z,23.05
2017-04-29T13:56:11.832Z,23.12
2017-04-29T13:57:21.467Z,23.12
2017-04-29T13:58:31.415Z,23.16
2017-04-29T13:59:40.736Z,23.1
2017-04-29T14:00:50.963Z,23.07
2017-04-29T14:02:01.038Z,23.12
2017-04-29T14:03:11.281Z,23.09
2017-04-29T14:04:21.212Z,23.1
2017-04-29T14:05:31.446Z,23.07
2017-04-29T14:06:41.361Z,23.02
2017-04-29T14:07:51.393Z,23.13
2017-04-29T14:09:01.652Z,23.15
2017-04-29T14:10:11.905Z,23.07
2017-04-29T14:11:21.554Z,23.05
2017-04-29T14:12:30.559Z,23.04
2017-04-29T14:13:40.785Z,23.05
2017-04-29T14:14:50.457Z,23
2017-04-29T14:15:59.778Z,23.05
2017-04-29T14:17:09.410Z,23.01
2017-04-29T14:18:19.347Z,23.07
2017-04-29T14:19:29.367Z,23.04
2017-04-29T14:20:39.289Z,23.04
2017-04-29T14:21:49.235Z,23.12
2017-04-29T14:22:59.170Z,22.97
2017-04-29T14:24:09.102Z,23.07
2017-04-29T14:25:19.064Z,22.97
2017-04-29T14:26:29.291Z,22.94
2017-04-29T14:27:39.218Z,22.95
2017-04-29T14:28:49.440Z,22.98
2017-04-29T14:29:59.364Z,23.02
2017-04-29T14:31:09.656Z,23.01
2017-04-29T14:32:19.876Z,22.97
2017-04-29T14:33:30.103Z,22.98
2017-04-29T14:34:40.329Z,22.98
2017-04-29T14:35:50.244Z,22.95
2017-04-29T14:37:00.617Z,22.97
2017-04-29T14:38:10.267Z,23.01
2017-04-29T14:39:19.883Z,22.9
2017-04-29T14:40:30.121Z,22.97
2017-04-29T14:41:40.032Z,22.91
2017-04-29T14:42:50.372Z,22.95
2017-04-29T14:44:00.284Z,22.88
2017-04-29T14:45:10.187Z,22.92
2017-04-29T14:46:19.806Z,22.83
2017-04-29T14:47:30.035Z,22.9
2017-04-29T14:48:40.407Z,22.88
2017-04-29T14:49:50.636Z,22.92
2017-04-29T14:51:00.858Z,22.83
2017-04-29T14:52:10.465Z,22.91
2017-04-29T14:53:19.484Z,22.86
2017-04-29T14:54:29.464Z,22.9
2017-04-29T14:55:39.689Z,22.92
2017-04-29T14:56:49.611Z,22.88
2017-04-29T14:57:59.231Z,22.9
2017-04-29T14:59:08.848Z,22.9
2017-04-29T15:00:19.331Z,22.86
2017-04-29T15:01:28.950Z,22.91
2017-04-29T15:02:38.563Z,22.88
2017-04-29T15:03:48.493Z,22.91